Lucerne, California
Current Conditions -  °F | °C
As of 8:56 AM on Monday 22 Dec 2014 (Local Time) from KUKI Reporting Station
Clear Clear  
Wind Chill: 51°   Ceiling: Unl
Heat Index: 51°   Visibility: 10mi
Dew Point: 49°   Wind: 3mph
Humidity: 92%   Direction: 70°ENE
Pressure: 30.3"   Gusts: NA
Location:  39.09°N, 122.8°W
Report Text: KUKI 221656Z AUTO 07003KT 10SM CLR 11/09 A3030 RMK AO2 SLP258 T01060094
Loading
Personal Weather Stations






























Interactive Weather Map New forecast layout! Learn more

10-Day Weather Forecast

Advertisements
Track Severe Weather on mobile